sensor_id;sensor_type;location;lat;lon;timestamp;pressure;altitude;pressure_sealevel;temperature;humidity
72677;BME280;60755;51.374;10.662;2023-11-21T00:02:25;96547.66;;;4.55;100.00
72677;BME280;60755;51.374;10.662;2023-11-21T00:04:54;96551.53;;;4.45;100.00
72677;BME280;60755;51.374;10.662;2023-11-21T00:07:22;96546.50;;;4.51;100.00
72677;BME280;60755;51.374;10.662;2023-11-21T00:09:49;96540.16;;;4.40;100.00
72677;BME280;60755;51.374;10.662;2023-11-21T00:12:17;96541.75;;;4.66;100.00
72677;BME280;60755;51.374;10.662;2023-11-21T00:14:44;96553.53;;;4.68;100.00
72677;BME280;60755;51.374;10.662;2023-11-21T00:17:11;96548.88;;;4.52;100.00
72677;BME280;60755;51.374;10.662;2023-11-21T00:19:38;96554.50;;;4.49;100.00
72677;BME280;60755;51.374;10.662;2023-11-21T00:22:06;96554.84;;;4.34;100.00
72677;BME280;60755;51.374;10.662;2023-11-21T00:24:34;96558.31;;;4.21;100.00
72677;BME280;60755;51.374;10.662;2023-11-21T00:27:02;96549.28;;;4.24;100.00
72677;BME280;60755;51.374;10.662;2023-11-21T00:29:29;96562.69;;;4.28;100.00
72677;BME280;60755;51.374;10.662;2023-11-21T00:31:56;96552.91;;;4.23;100.00
72677;BME280;60755;51.374;10.662;2023-11-21T00:34:24;96546.91;;;4.22;100.00
72677;BME280;60755;51.374;10.662;2023-11-21T00:36:51;96543.41;;;4.35;100.00
72677;BME280;60755;51.374;10.662;2023-11-21T00:39:18;96546.97;;;4.41;100.00
72677;BME280;60755;51.374;10.662;2023-11-21T00:41:47;96549.94;;;4.44;100.00
72677;BME280;60755;51.374;10.662;2023-11-21T00:44:14;96554.22;;;4.32;100.00
72677;BME280;60755;51.374;10.662;2023-11-21T00:46:41;96553.44;;;4.32;100.00
72677;BME280;60755;51.374;10.662;2023-11-21T00:49:09;96558.00;;;4.11;100.00
72677;BME280;60755;51.374;10.662;2023-11-21T00:51:36;96559.69;;;3.92;100.00
72677;BME280;60755;51.374;10.662;2023-11-21T00:54:04;96563.66;;;4.02;100.00
72677;BME280;60755;51.374;10.662;2023-11-21T00:56:32;96556.41;;;4.10;100.00
72677;BME280;60755;51.374;10.662;2023-11-21T00:59:01;96562.22;;;4.06;100.00
72677;BME280;60755;51.374;10.662;2023-11-21T01:01:30;96562.97;;;4.13;100.00
72677;BME280;60755;51.374;10.662;2023-11-21T01:03:58;96566.59;;;4.12;100.00
72677;BME280;60755;51.374;10.662;2023-11-21T01:06:25;96575.75;;;4.14;100.00
72677;BME280;60755;51.374;10.662;2023-11-21T01:08:52;96576.41;;;4.10;100.00
72677;BME280;60755;51.374;10.662;2023-11-21T01:11:19;96580.53;;;3.86;100.00
72677;BME280;60755;51.374;10.662;2023-11-21T01:13:47;96586.56;;;3.80;100.00
72677;BME280;60755;51.374;10.662;2023-11-21T01:16:16;96584.00;;;3.73;100.00
72677;BME280;60755;51.374;10.662;2023-11-21T01:18:43;96591.06;;;3.53;100.00
72677;BME280;60755;51.374;10.662;2023-11-21T01:21:12;96588.06;;;3.62;100.00
72677;BME280;60755;51.374;10.662;2023-11-21T01:23:39;96594.91;;;3.88;100.00
72677;BME280;60755;51.374;10.662;2023-11-21T01:26:06;96595.81;;;3.69;100.00
72677;BME280;60755;51.374;10.662;2023-11-21T01:28:36;96599.78;;;3.72;100.00
72677;BME280;60755;51.374;10.662;2023-11-21T01:31:06;96605.84;;;3.52;100.00
72677;BME280;60755;51.374;10.662;2023-11-21T01:33:34;96606.25;;;3.56;100.00
72677;BME280;60755;51.374;10.662;2023-11-21T01:36:02;96610.22;;;3.65;100.00
72677;BME280;60755;51.374;10.662;2023-11-21T01:38:29;96614.16;;;3.81;100.00
72677;BME280;60755;51.374;10.662;2023-11-21T01:40:56;96608.13;;;3.87;100.00
72677;BME280;60755;51.374;10.662;2023-11-21T01:43:23;96614.94;;;3.81;100.00
72677;BME280;60755;51.374;10.662;2023-11-21T01:45:50;96612.56;;;3.80;100.00
72677;BME280;60755;51.374;10.662;2023-11-21T01:48:18;96609.75;;;3.75;100.00
72677;BME280;60755;51.374;10.662;2023-11-21T01:50:47;96614.34;;;3.79;100.00
72677;BME280;60755;51.374;10.662;2023-11-21T01:53:14;96616.94;;;3.79;100.00
72677;BME280;60755;51.374;10.662;2023-11-21T01:55:42;96610.97;;;3.72;100.00
72677;BME280;60755;51.374;10.662;2023-11-21T01:58:10;96614.66;;;3.51;100.00
72677;BME280;60755;51.374;10.662;2023-11-21T02:00:38;96620.47;;;3.47;100.00
72677;BME280;60755;51.374;10.662;2023-11-21T02:03:05;96621.25;;;3.54;100.00
72677;BME280;60755;51.374;10.662;2023-11-21T02:05:33;96622.06;;;3.48;100.00
72677;BME280;60755;51.374;10.662;2023-11-21T02:08:02;96617.44;;;3.56;100.00
72677;BME280;60755;51.374;10.662;2023-11-21T02:10:30;96623.06;;;3.53;100.00
72677;BME280;60755;51.374;10.662;2023-11-21T02:12:58;96625.22;;;3.63;100.00
72677;BME280;60755;51.374;10.662;2023-11-21T02:15:29;96621.06;;;3.49;100.00
72677;BME280;60755;51.374;10.662;2023-11-21T02:17:56;96617.41;;;3.63;100.00
72677;BME280;60755;51.374;10.662;2023-11-21T02:20:24;96612.56;;;3.73;100.00
72677;BME280;60755;51.374;10.662;2023-11-21T02:22:54;96619.81;;;3.64;100.00
72677;BME280;60755;51.374;10.662;2023-11-21T02:25:24;96619.06;;;3.51;100.00
72677;BME280;60755;51.374;10.662;2023-11-21T02:27:51;96623.44;;;3.57;100.00
72677;BME280;60755;51.374;10.662;2023-11-21T02:30:20;96619.81;;;3.58;100.00
72677;BME280;60755;51.374;10.662;2023-11-21T02:32:49;96624.63;;;3.61;100.00
72677;BME280;60755;51.374;10.662;2023-11-21T02:35:19;96628.16;;;3.73;100.00
72677;BME280;60755;51.374;10.662;2023-11-21T02:37:47;96630.31;;;3.83;100.00
72677;BME280;60755;51.374;10.662;2023-11-21T02:40:16;96631.56;;;3.74;100.00
72677;BME280;60755;51.374;10.662;2023-11-21T02:42:44;96630.50;;;3.88;100.00
72677;BME280;60755;51.374;10.662;2023-11-21T02:45:12;96629.72;;;3.81;100.00
72677;BME280;60755;51.374;10.662;2023-11-21T02:47:42;96633.31;;;3.86;100.00
72677;BME280;60755;51.374;10.662;2023-11-21T02:50:10;96632.53;;;3.86;100.00
72677;BME280;60755;51.374;10.662;2023-11-21T02:52:37;96632.47;;;3.92;100.00
72677;BME280;60755;51.374;10.662;2023-11-21T02:55:05;96628.69;;;3.95;100.00
72677;BME280;60755;51.374;10.662;2023-11-21T02:57:34;96626.66;;;3.97;100.00
72677;BME280;60755;51.374;10.662;2023-11-21T03:00:02;96626.72;;;3.84;100.00
72677;BME280;60755;51.374;10.662;2023-11-21T03:02:29;96626.25;;;3.49;100.00
72677;BME280;60755;51.374;10.662;2023-11-21T03:04:57;96614.88;;;3.50;100.00
72677;BME280;60755;51.374;10.662;2023-11-21T03:07:24;96621.84;;;3.56;100.00
72677;BME280;60755;51.374;10.662;2023-11-21T03:09:51;96605.84;;;3.52;100.00
72677;BME280;60755;51.374;10.662;2023-11-21T03:12:19;96615.44;;;3.52;100.00
72677;BME280;60755;51.374;10.662;2023-11-21T03:14:47;96607.06;;;3.50;100.00
72677;BME280;60755;51.374;10.662;2023-11-21T03:17:15;96610.88;;;3.54;100.00
72677;BME280;60755;51.374;10.662;2023-11-21T03:19:42;96610.63;;;3.62;100.00
72677;BME280;60755;51.374;10.662;2023-11-21T03:22:09;96623.00;;;3.67;100.00
72677;BME280;60755;51.374;10.662;2023-11-21T03:24:37;96627.56;;;3.78;100.00
72677;BME280;60755;51.374;10.662;2023-11-21T03:27:05;96626.38;;;3.74;100.00
72677;BME280;60755;51.374;10.662;2023-11-21T03:29:34;96628.22;;;3.60;100.00
72677;BME280;60755;51.374;10.662;2023-11-21T03:32:03;96630.84;;;3.53;100.00
72677;BME280;60755;51.374;10.662;2023-11-21T03:34:30;96638.22;;;3.50;100.00
72677;BME280;60755;51.374;10.662;2023-11-21T03:36:57;96639.03;;;3.44;100.00
72677;BME280;60755;51.374;10.662;2023-11-21T03:39:25;96639.44;;;3.54;100.00
72677;BME280;60755;51.374;10.662;2023-11-21T03:41:53;96647.41;;;3.52;100.00
72677;BME280;60755;51.374;10.662;2023-11-21T03:44:21;96648.03;;;3.54;100.00
72677;BME280;60755;51.374;10.662;2023-11-21T03:46:48;96645.84;;;3.45;100.00
72677;BME280;60755;51.374;10.662;2023-11-21T03:49:17;96638.66;;;3.47;100.00
72677;BME280;60755;51.374;10.662;2023-11-21T03:51:44;96641.88;;;3.35;100.00
72677;BME280;60755;51.374;10.662;2023-11-21T03:54:11;96653.25;;;3.41;100.00
72677;BME280;60755;51.374;10.662;2023-11-21T03:56:40;96656.22;;;3.45;100.00
72677;BME280;60755;51.374;10.662;2023-11-21T03:59:07;96654.03;;;3.42;100.00
72677;BME280;60755;51.374;10.662;2023-11-21T04:01:35;96651.88;;;3.12;100.00
72677;BME280;60755;51.374;10.662;2023-11-21T04:04:02;96658.28;;;3.16;100.00
72677;BME280;60755;51.374;10.662;2023-11-21T04:06:31;96658.66;;;3.26;100.00
72677;BME280;60755;51.374;10.662;2023-11-21T04:08:59;96654.06;;;3.35;100.00
72677;BME280;60755;51.374;10.662;2023-11-21T04:11:26;96647.84;;;3.36;100.00
72677;BME280;60755;51.374;10.662;2023-11-21T04:13:56;96650.66;;;3.41;100.00
72677;BME280;60755;51.374;10.662;2023-11-21T04:16:23;96653.25;;;3.41;100.00
72677;BME280;60755;51.374;10.662;2023-11-21T04:18:50;96664.41;;;3.55;100.00
72677;BME280;60755;51.374;10.662;2023-11-21T04:21:18;96662.97;;;3.59;100.00
72677;BME280;60755;51.374;10.662;2023-11-21T04:23:47;96665.78;;;3.64;100.00
72677;BME280;60755;51.374;10.662;2023-11-21T04:26:14;96677.41;;;3.48;100.00
72677;BME280;60755;51.374;10.662;2023-11-21T04:28:41;96670.63;;;3.41;100.00
72677;BME280;60755;51.374;10.662;2023-11-21T04:31:08;96670.81;;;3.46;100.00
72677;BME280;60755;51.374;10.662;2023-11-21T04:33:36;96670.56;;;3.67;100.00
72677;BME280;60755;51.374;10.662;2023-11-21T04:36:03;96673.75;;;3.69;100.00
72677;BME280;60755;51.374;10.662;2023-11-21T04:38:31;96679.13;;;3.74;100.00
72677;BME280;60755;51.374;10.662;2023-11-21T04:41:00;96682.16;;;3.64;100.00
72677;BME280;60755;51.374;10.662;2023-11-21T04:43:27;96676.59;;;3.61;100.00
72677;BME280;60755;51.374;10.662;2023-11-21T04:45:54;96679.34;;;3.66;100.00
72677;BME280;60755;51.374;10.662;2023-11-21T04:48:22;96686.53;;;3.77;100.00
72677;BME280;60755;51.374;10.662;2023-11-21T04:50:49;96686.25;;;3.92;100.00
72677;BME280;60755;51.374;10.662;2023-11-21T04:53:16;96688.44;;;4.02;100.00
72677;BME280;60755;51.374;10.662;2023-11-21T04:55:44;96686.81;;;4.01;100.00
72677;BME280;60755;51.374;10.662;2023-11-21T04:58:13;96687.19;;;4.11;100.00
72677;BME280;60755;51.374;10.662;2023-11-21T05:00:40;96692.72;;;4.21;100.00
72677;BME280;60755;51.374;10.662;2023-11-21T05:03:09;96685.88;;;4.33;100.00
72677;BME280;60755;51.374;10.662;2023-11-21T05:05:36;96692.63;;;4.41;100.00
72677;BME280;60755;51.374;10.662;2023-11-21T05:08:03;96691.63;;;4.42;100.00
72677;BME280;60755;51.374;10.662;2023-11-21T05:10:31;96694.88;;;4.31;100.00
72677;BME280;60755;51.374;10.662;2023-11-21T05:12:58;96700.66;;;4.33;100.00
72677;BME280;60755;51.374;10.662;2023-11-21T05:15:27;96697.44;;;4.37;100.00
72677;BME280;60755;51.374;10.662;2023-11-21T05:17:54;96704.34;;;4.25;100.00
72677;BME280;60755;51.374;10.662;2023-11-21T05:20:26;96700.75;;;4.19;100.00
72677;BME280;60755;51.374;10.662;2023-11-21T05:22:53;96709.94;;;4.22;100.00
72677;BME280;60755;51.374;10.662;2023-11-21T05:25:20;96707.09;;;4.30;100.00
72677;BME280;60755;51.374;10.662;2023-11-21T05:27:47;96706.31;;;4.23;100.00
72677;BME280;60755;51.374;10.662;2023-11-21T05:30:15;96711.91;;;4.33;100.00
72677;BME280;60755;51.374;10.662;2023-11-21T05:32:43;96713.44;;;4.41;100.00
72677;BME280;60755;51.374;10.662;2023-11-21T05:35:12;96714.69;;;4.63;100.00
72677;BME280;60755;51.374;10.662;2023-11-21T05:37:41;96726.25;;;4.74;100.00
72677;BME280;60755;51.374;10.662;2023-11-21T05:40:09;96727.47;;;4.71;100.00
72677;BME280;60755;51.374;10.662;2023-11-21T05:42:37;96731.22;;;4.82;100.00
72677;BME280;60755;51.374;10.662;2023-11-21T05:45:05;96730.34;;;4.88;100.00
72677;BME280;60755;51.374;10.662;2023-11-21T05:47:36;96732.28;;;4.99;100.00
72677;BME280;60755;51.374;10.662;2023-11-21T05:50:06;96734.63;;;5.08;100.00
72677;BME280;60755;51.374;10.662;2023-11-21T05:52:36;96737.25;;;5.08;100.00
72677;BME280;60755;51.374;10.662;2023-11-21T05:55:04;96737.38;;;5.13;100.00
72677;BME280;60755;51.374;10.662;2023-11-21T05:57:33;96751.81;;;5.15;100.00
72677;BME280;60755;51.374;10.662;2023-11-21T06:00:03;96736.31;;;5.20;100.00
72677;BME280;60755;51.374;10.662;2023-11-21T06:02:37;96751.28;;;5.31;100.00
72677;BME280;60755;51.374;10.662;2023-11-21T06:05:07;96755.78;;;5.43;100.00
72677;BME280;60755;51.374;10.662;2023-11-21T06:07:35;96748.22;;;5.59;100.00
72677;BME280;60755;51.374;10.662;2023-11-21T06:10:05;96749.63;;;5.62;100.00
72677;BME280;60755;51.374;10.662;2023-11-21T06:12:35;96752.13;;;5.94;100.00
72677;BME280;60755;51.374;10.662;2023-11-21T06:15:02;96751.22;;;5.81;100.00
72677;BME280;60755;51.374;10.662;2023-11-21T06:17:31;96752.94;;;5.94;100.00
72677;BME280;60755;51.374;10.662;2023-11-21T06:19:59;96759.56;;;6.08;100.00
72677;BME280;60755;51.374;10.662;2023-11-21T06:22:28;96759.16;;;6.11;100.00
72677;BME280;60755;51.374;10.662;2023-11-21T06:24:56;96770.16;;;6.13;100.00
72677;BME280;60755;51.374;10.662;2023-11-21T06:27:24;96767.72;;;6.19;100.00
72677;BME280;60755;51.374;10.662;2023-11-21T06:29:51;96758.41;;;6.23;100.00
72677;BME280;60755;51.374;10.662;2023-11-21T06:32:18;96771.91;;;6.20;100.00
72677;BME280;60755;51.374;10.662;2023-11-21T06:34:46;96774.94;;;6.16;100.00
72677;BME280;60755;51.374;10.662;2023-11-21T06:37:13;96788.19;;;6.15;100.00
72677;BME280;60755;51.374;10.662;2023-11-21T06:39:42;96786.97;;;6.17;100.00
72677;BME280;60755;51.374;10.662;2023-11-21T06:42:09;96788.41;;;6.13;100.00
72677;BME280;60755;51.374;10.662;2023-11-21T06:44:36;96793.28;;;6.10;100.00
72677;BME280;60755;51.374;10.662;2023-11-21T06:47:05;96797.28;;;6.12;100.00
72677;BME280;60755;51.374;10.662;2023-11-21T06:49:32;96786.84;;;6.12;100.00
72677;BME280;60755;51.374;10.662;2023-11-21T06:51:59;96790.41;;;6.18;100.00
72677;BME280;60755;51.374;10.662;2023-11-21T06:54:30;96790.91;;;6.27;100.00
72677;BME280;60755;51.374;10.662;2023-11-21T06:57:00;96790.72;;;6.40;100.00
72677;BME280;60755;51.374;10.662;2023-11-21T06:59:28;96797.97;;;6.38;100.00
72677;BME280;60755;51.374;10.662;2023-11-21T07:01:55;96795.06;;;6.46;100.00
72677;BME280;60755;51.374;10.662;2023-11-21T07:04:23;96796.91;;;6.45;100.00
72677;BME280;60755;51.374;10.662;2023-11-21T07:06:51;96803.56;;;6.41;100.00
72677;BME280;60755;51.374;10.662;2023-11-21T07:09:18;96809.72;;;6.47;100.00
72677;BME280;60755;51.374;10.662;2023-11-21T07:11:48;96807.03;;;6.54;100.00
72677;BME280;60755;51.374;10.662;2023-11-21T07:14:16;96821.66;;;6.73;100.00
72677;BME280;60755;51.374;10.662;2023-11-21T07:16:46;96818.38;;;6.78;100.00
72677;BME280;60755;51.374;10.662;2023-11-21T07:19:13;96821.16;;;6.83;100.00
72677;BME280;60755;51.374;10.662;2023-11-21T07:21:41;96827.59;;;6.80;100.00
72677;BME280;60755;51.374;10.662;2023-11-21T07:24:08;96832.16;;;6.85;100.00
72677;BME280;60755;51.374;10.662;2023-11-21T07:26:37;96829.97;;;6.82;100.00
72677;BME280;60755;51.374;10.662;2023-11-21T07:29:04;96832.41;;;6.95;100.00
72677;BME280;60755;51.374;10.662;2023-11-21T07:31:33;96838.88;;;6.92;100.00
72677;BME280;60755;51.374;10.662;2023-11-21T07:34:01;96847.06;;;6.96;100.00
72677;BME280;60755;51.374;10.662;2023-11-21T07:36:28;96844.34;;;6.72;100.00
72677;BME280;60755;51.374;10.662;2023-11-21T07:38:55;96845.00;;;6.86;100.00
72677;BME280;60755;51.374;10.662;2023-11-21T07:41:22;96850.13;;;6.93;100.00
72677;BME280;60755;51.374;10.662;2023-11-21T07:43:50;96857.31;;;6.79;100.00
72677;BME280;60755;51.374;10.662;2023-11-21T07:46:17;96853.88;;;6.97;100.00
72677;BME280;60755;51.374;10.662;2023-11-21T07:48:47;96859.25;;;7.02;100.00
72677;BME280;60755;51.374;10.662;2023-11-21T07:51:14;96856.81;;;6.89;100.00
72677;BME280;60755;51.374;10.662;2023-11-21T07:53:41;96860.09;;;6.84;100.00
72677;BME280;60755;51.374;10.662;2023-11-21T07:56:09;96860.81;;;6.73;100.00
72677;BME280;60755;51.374;10.662;2023-11-21T07:58:36;96867.00;;;6.60;100.00
72677;BME280;60755;51.374;10.662;2023-11-21T08:01:04;96863.34;;;6.98;100.00
72677;BME280;60755;51.374;10.662;2023-11-21T08:03:32;96870.66;;;7.08;100.00
72677;BME280;60755;51.374;10.662;2023-11-21T08:06:00;96872.16;;;7.15;100.00
72677;BME280;60755;51.374;10.662;2023-11-21T08:08:29;96880.91;;;7.21;100.00
72677;BME280;60755;51.374;10.662;2023-11-21T08:10:56;96877.94;;;7.17;100.00
72677;BME280;60755;51.374;10.662;2023-11-21T08:13:24;96871.94;;;7.28;100.00
72677;BME280;60755;51.374;10.662;2023-11-21T08:15:54;96875.16;;;7.31;100.00
72677;BME280;60755;51.374;10.662;2023-11-21T08:18:21;96881.53;;;7.35;100.00
72677;BME280;60755;51.374;10.662;2023-11-21T08:20:49;96880.19;;;7.44;100.00
72677;BME280;60755;51.374;10.662;2023-11-21T08:23:17;96883.88;;;7.66;100.00
72677;BME280;60755;51.374;10.662;2023-11-21T08:25:44;96881.03;;;7.68;99.43
72677;BME280;60755;51.374;10.662;2023-11-21T08:28:12;96881.03;;;7.56;100.00
72677;BME280;60755;51.374;10.662;2023-11-21T08:30:40;96887.97;;;7.62;100.00
72677;BME280;60755;51.374;10.662;2023-11-21T08:33:08;96890.94;;;7.77;99.16
72677;BME280;60755;51.374;10.662;2023-11-21T08:35:35;96890.78;;;8.02;98.09
72677;BME280;60755;51.374;10.662;2023-11-21T08:38:03;96900.97;;;7.80;98.97
72677;BME280;60755;51.374;10.662;2023-11-21T08:40:32;96897.22;;;8.00;99.72
72677;BME280;60755;51.374;10.662;2023-11-21T08:42:59;96892.38;;;7.62;100.00
72677;BME280;60755;51.374;10.662;2023-11-21T08:45:26;96895.50;;;7.70;100.00
72677;BME280;60755;51.374;10.662;2023-11-21T08:47:54;96899.47;;;7.73;100.00
72677;BME280;60755;51.374;10.662;2023-11-21T08:50:21;96895.41;;;7.89;100.00
72677;BME280;60755;51.374;10.662;2023-11-21T08:52:48;96904.50;;;7.86;100.00
72677;BME280;60755;51.374;10.662;2023-11-21T08:55:15;96908.50;;;7.89;100.00
72677;BME280;60755;51.374;10.662;2023-11-21T08:57:44;96907.03;;;8.04;99.59
72677;BME280;60755;51.374;10.662;2023-11-21T09:00:13;96911.25;;;8.05;100.00
72677;BME280;60755;51.374;10.662;2023-11-21T09:02:43;96918.66;;;8.20;99.67
72677;BME280;60755;51.374;10.662;2023-11-21T09:05:11;96920.44;;;8.08;99.21
72677;BME280;60755;51.374;10.662;2023-11-21T09:07:40;96916.47;;;8.17;99.10
72677;BME280;60755;51.374;10.662;2023-11-21T09:10:08;96918.28;;;8.05;100.00
72677;BME280;60755;51.374;10.662;2023-11-21T09:12:36;96919.31;;;8.16;99.13
72677;BME280;60755;51.374;10.662;2023-11-21T09:15:07;96928.53;;;8.06;100.00
72677;BME280;60755;51.374;10.662;2023-11-21T09:17:35;96934.44;;;8.02;99.97
72677;BME280;60755;51.374;10.662;2023-11-21T09:20:03;96934.66;;;7.89;100.00
72677;BME280;60755;51.374;10.662;2023-11-21T09:22:31;96939.19;;;7.81;100.00
72677;BME280;60755;51.374;10.662;2023-11-21T09:24:59;96937.59;;;7.80;100.00
72677;BME280;60755;51.374;10.662;2023-11-21T09:27:26;96942.72;;;7.87;100.00
72677;BME280;60755;51.374;10.662;2023-11-21T09:29:55;96943.63;;;7.81;100.00
72677;BME280;60755;51.374;10.662;2023-11-21T09:32:25;96951.03;;;7.96;100.00
72677;BME280;60755;51.374;10.662;2023-11-21T09:34:52;96954.00;;;7.99;100.00
72677;BME280;60755;51.374;10.662;2023-11-21T09:37:21;96958.09;;;8.07;100.00
72677;BME280;60755;51.374;10.662;2023-11-21T09:39:48;96954.22;;;7.98;100.00
72677;BME280;60755;51.374;10.662;2023-11-21T09:42:21;96952.09;;;8.06;100.00
72677;BME280;60755;51.374;10.662;2023-11-21T09:44:54;96949.47;;;7.95;100.00
72677;BME280;60755;51.374;10.662;2023-11-21T09:47:26;96959.13;;;7.94;100.00
72677;BME280;60755;51.374;10.662;2023-11-21T09:49:54;96960.84;;;8.12;100.00
72677;BME280;60755;51.374;10.662;2023-11-21T09:52:25;96960.97;;;8.05;100.00
72677;BME280;60755;51.374;10.662;2023-11-21T09:54:53;96964.47;;;7.99;100.00
72677;BME280;60755;51.374;10.662;2023-11-21T09:57:23;96970.50;;;8.00;99.96
72677;BME280;60755;51.374;10.662;2023-11-21T09:59:52;96967.34;;;8.33;97.97
72677;BME280;60755;51.374;10.662;2023-11-21T10:02:22;96964.78;;;8.45;98.74
72677;BME280;60755;51.374;10.662;2023-11-21T10:04:53;96963.63;;;8.40;98.91
72677;BME280;60755;51.374;10.662;2023-11-21T10:07:20;96968.44;;;8.44;97.29
72677;BME280;60755;51.374;10.662;2023-11-21T10:09:48;96964.03;;;8.26;97.83
72677;BME280;60755;51.374;10.662;2023-11-21T10:12:18;96963.97;;;8.56;97.92
72677;BME280;60755;51.374;10.662;2023-11-21T10:14:48;96965.81;;;8.44;98.10
72677;BME280;60755;51.374;10.662;2023-11-21T10:17:17;96962.53;;;8.06;98.49
72677;BME280;60755;51.374;10.662;2023-11-21T10:19:46;96958.88;;;8.37;99.33
72677;BME280;60755;51.374;10.662;2023-11-21T10:22:15;96965.88;;;8.25;98.17
72677;BME280;60755;51.374;10.662;2023-11-21T10:24:43;96964.03;;;8.14;99.38
72677;BME280;60755;51.374;10.662;2023-11-21T10:27:10;96961.69;;;8.48;97.90
72677;BME280;60755;51.374;10.662;2023-11-21T10:29:39;96970.31;;;8.25;99.10
72677;BME280;60755;51.374;10.662;2023-11-21T10:32:08;96967.47;;;8.26;98.08
72677;BME280;60755;51.374;10.662;2023-11-21T10:34:35;96972.34;;;8.23;99.43
72677;BME280;60755;51.374;10.662;2023-11-21T10:37:11;96972.91;;;8.25;99.56
72677;BME280;60755;51.374;10.662;2023-11-21T10:39:40;96972.81;;;8.31;98.00
72677;BME280;60755;51.374;10.662;2023-11-21T10:42:10;96978.84;;;8.20;99.67
72677;BME280;60755;51.374;10.662;2023-11-21T10:44:37;96981.19;;;8.10;100.00
72677;BME280;60755;51.374;10.662;2023-11-21T10:47:04;96981.44;;;8.08;99.79
72677;BME280;60755;51.374;10.662;2023-11-21T10:49:33;96984.84;;;8.09;100.00
72677;BME280;60755;51.374;10.662;2023-11-21T10:52:00;96987.22;;;7.99;100.00
72677;BME280;60755;51.374;10.662;2023-11-21T10:54:28;96988.91;;;7.93;100.00
72677;BME280;60755;51.374;10.662;2023-11-21T10:56:58;96991.31;;;7.95;100.00
72677;BME280;60755;51.374;10.662;2023-11-21T10:59:29;96992.44;;;7.87;100.00
72677;BME280;60755;51.374;10.662;2023-11-21T11:01:58;96997.88;;;7.85;100.00
72677;BME280;60755;51.374;10.662;2023-11-21T11:04:27;97001.66;;;8.01;100.00
72677;BME280;60755;51.374;10.662;2023-11-21T11:06:57;96999.56;;;7.80;100.00
72677;BME280;60755;51.374;10.662;2023-11-21T11:09:25;97007.53;;;7.85;100.00
72677;BME280;60755;51.374;10.662;2023-11-21T11:11:53;97008.06;;;7.75;100.00
72677;BME280;60755;51.374;10.662;2023-11-21T11:14:22;97007.66;;;7.78;100.00
72677;BME280;60755;51.374;10.662;2023-11-21T11:16:53;97010.47;;;7.77;100.00
72677;BME280;60755;51.374;10.662;2023-11-21T11:19:21;97008.38;;;7.67;100.00
72677;BME280;60755;51.374;10.662;2023-11-21T11:21:56;97007.81;;;7.65;100.00
72677;BME280;60755;51.374;10.662;2023-11-21T11:24:36;97019.91;;;7.29;100.00
72677;BME280;60755;51.374;10.662;2023-11-21T11:27:25;97015.56;;;7.23;100.00
72677;BME280;60755;51.374;10.662;2023-11-21T11:30:06;97023.25;;;7.18;100.00
72677;BME280;60755;51.374;10.662;2023-11-21T11:32:43;97028.13;;;7.15;100.00
72677;BME280;60755;51.374;10.662;2023-11-21T11:35:19;97028.47;;;7.00;100.00
72677;BME280;60755;51.374;10.662;2023-11-21T11:37:51;97040.25;;;7.09;100.00
72677;BME280;60755;51.374;10.662;2023-11-21T11:40:18;97042.56;;;7.36;100.00
72677;BME280;60755;51.374;10.662;2023-11-21T11:42:56;97041.19;;;7.33;100.00
72677;BME280;60755;51.374;10.662;2023-11-21T11:45:32;97039.38;;;7.15;100.00
72677;BME280;60755;51.374;10.662;2023-11-21T11:48:00;97041.59;;;6.93;100.00
72677;BME280;60755;51.374;10.662;2023-11-21T11:50:27;97046.94;;;7.23;100.00
72677;BME280;60755;51.374;10.662;2023-11-21T11:52:58;97049.63;;;7.17;100.00
72677;BME280;60755;51.374;10.662;2023-11-21T11:55:39;97046.03;;;7.11;100.00
72677;BME280;60755;51.374;10.662;2023-11-21T11:58:07;97052.84;;;6.76;100.00
72677;BME280;60755;51.374;10.662;2023-11-21T12:00:36;97046.72;;;7.07;100.00
72677;BME280;60755;51.374;10.662;2023-11-21T12:03:07;97054.53;;;7.07;100.00
72677;BME280;60755;51.374;10.662;2023-11-21T12:05:36;97062.06;;;6.96;100.00
72677;BME280;60755;51.374;10.662;2023-11-21T12:08:06;97063.38;;;7.06;100.00
72677;BME280;60755;51.374;10.662;2023-11-21T12:10:35;97062.84;;;6.79;100.00
72677;BME280;60755;51.374;10.662;2023-11-21T12:13:05;97070.84;;;7.02;100.00
72677;BME280;60755;51.374;10.662;2023-11-21T12:15:35;97061.94;;;6.91;100.00
72677;BME280;60755;51.374;10.662;2023-11-21T12:18:03;97072.84;;;7.07;100.00
72677;BME280;60755;51.374;10.662;2023-11-21T12:20:31;97072.16;;;6.93;100.00
72677;BME280;60755;51.374;10.662;2023-11-21T12:23:05;97075.50;;;7.00;100.00
72677;BME280;60755;51.374;10.662;2023-11-21T12:25:34;97079.66;;;7.08;100.00
72677;BME280;60755;51.374;10.662;2023-11-21T12:28:03;97084.13;;;7.00;100.00
72677;BME280;60755;51.374;10.662;2023-11-21T12:30:33;97093.72;;;6.82;100.00
72677;BME280;60755;51.374;10.662;2023-11-21T12:33:04;97092.34;;;6.79;100.00
72677;BME280;60755;51.374;10.662;2023-11-21T12:35:33;97099.78;;;6.82;100.00
72677;BME280;60755;51.374;10.662;2023-11-21T12:38:02;97092.75;;;6.83;100.00
72677;BME280;60755;51.374;10.662;2023-11-21T12:40:29;97092.34;;;6.54;100.00
72677;BME280;60755;51.374;10.662;2023-11-21T12:42:58;97101.28;;;6.40;100.00
72677;BME280;60755;51.374;10.662;2023-11-21T12:45:27;97106.25;;;6.48;100.00
72677;BME280;60755;51.374;10.662;2023-11-21T12:47:56;97100.06;;;6.11;100.00
72677;BME280;60755;51.374;10.662;2023-11-21T12:50:28;97101.72;;;6.05;100.00
72677;BME280;60755;51.374;10.662;2023-11-21T12:52:59;97100.41;;;6.21;100.00
72677;BME280;60755;51.374;10.662;2023-11-21T12:55:30;97109.28;;;6.13;100.00
72677;BME280;60755;51.374;10.662;2023-11-21T12:57:57;97116.59;;;5.98;99.39